Latest Weather Observations for Mangrove Mountain

IDN60801

Issued at 6:32 am EST Saturday 27 May 2017 (issued every 30 minutes, with the page automatically refreshed every 10 minutes)

About weather observations | Map of weather stations | Latest weather observations for NSW | Other Formats
Station Details ID: 061375 Name: MANGROVE MOUNTAIN AWS Lat: -33.29 Lon: 151.21 Height: 305.0 m
Data from the previous 72 hours. | See also: Recent months at Mangrove Mountain
Date/Time
EST
Temp
°C
App
Temp
°C
Dew
Point
°C
Rel
Hum
%
Delta-T
°C
Wind Press
QNH
hPa
Press
MSL
hPa
Rain since
9am
mm
Dir  Spd
km/h
Gust
km/h
Spd
kts
Gust
kts
27/06:30am 6.5 5.3 6.5 100 0.0 NW 2 6 1 3 - - 0.0
27/06:00am 6.3 5.1 6.3 100 0.0 NW 2 4 1 2 - - 0.0
27/05:30am 6.8 5.7 6.8 100 0.0 NW 2 6 1 3 - - 0.0
27/05:00am 6.3 4.7 6.3 100 0.0 NW 4 6 2 3 - - 0.0
27/04:30am 6.8 6.1 6.8 100 0.0 CALM 0 0 0 0 - - 0.0
27/04:00am 6.5 5.3 6.5 100 0.0 NW 2 4 1 2 - - 0.0
27/03:30am 6.6 5.4 6.6 100 0.0 NW 2 2 1 1 - - 0.0
27/03:00am 6.8 5.3 6.8 100 0.0 NW 4 6 2 3 - - 0.0
27/02:30am 7.1 5.7 7.1 100 0.0 NW 4 6 2 3 - - 0.0
27/02:00am 7.8 6.5 7.8 100 0.0 NW 4 6 2 3 - - 0.0
27/01:30am 7.6 6.3 7.5 99 0.0 NW 4 6 2 3 - - 0.0
27/01:00am 7.8 6.9 7.8 100 0.0 NW 2 4 1 2 - - 0.0
27/12:30am 9.3 8.4 9.3 100 0.0 NW 4 6 2 3 - - 0.0
27/12:00am 9.2 8.3 9.2 100 0.0 NW 4 6 2 3 - - 0.0
 
Date/Time
EST
Temp
°C
App
Temp
°C
Dew
Point
°C
Rel
Hum
%
Delta-T
°C
Wind Press
QNH
hPa
Press
MSL
hPa
Rain since
9am
mm
Dir  Spd
km/h
Gust
km/h
Spd
kts
Gust
kts
26/11:30pm 8.0 6.8 7.9 99 0.0 NNW 4 6 2 3 - - 0.0
26/11:00pm 7.6 7.0 7.2 97 0.2 CALM 0 0 0 0 - - 0.0
26/10:30pm 8.6 7.1 8.3 98 0.1 WNW 6 6 3 3 - - 0.0
26/10:00pm 8.6 7.4 8.2 97 0.2 WNW 4 6 2 3 - - 0.0
26/09:30pm 9.6 9.2 9.6 100 0.0 NW 2 2 1 1 - - 0.0
26/09:00pm 9.7 9.6 9.6 99 0.1 CALM 0 0 0 0 - - 0.0
26/08:30pm 9.5 9.3 9.2 98 0.2 CALM 0 0 0 0 - - 0.0
26/08:00pm 9.2 8.9 8.6 96 0.3 CALM 0 0 0 0 - - 0.0
26/07:30pm 9.2 8.8 8.4 95 0.4 CALM 0 0 0 0 - - 0.0
26/07:00pm 9.4 9.1 8.5 94 0.4 CALM 0 0 0 0 - - 0.0
26/06:30pm 10.2 10.1 9.4 95 0.4 CALM 0 0 0 0 - - 0.0
26/06:00pm 9.7 9.3 8.1 90 0.8 CALM 0 0 0 0 - - 0.0
26/05:30pm 10.3 9.8 7.9 85 1.2 CALM 0 0 0 0 - - 0.0
26/05:00pm 11.6 11.1 7.9 78 1.8 CALM 0 0 0 0 - - 0.0
26/04:30pm 14.3 14.2 9.5 73 2.5 CALM 0 0 0 0 - - 0.0
26/04:00pm 15.8 15.6 9.2 65 3.5 CALM 0 2 0 1 - - 0.0
26/03:30pm 16.6 16.0 9.1 61 3.9 SSW 2 7 1 4 - - 0.0
26/03:00pm 16.6 15.1 8.6 59 4.2 SSW 6 9 3 5 - - 0.0
26/02:30pm 16.9 15.4 8.6 58 4.3 SSW 6 9 3 5 - - 0.0
26/02:00pm 17.3 16.0 9.2 59 4.3 SW 6 9 3 5 - - 0.0
26/01:30pm 17.1 15.4 8.3 56 4.6 WSW 7 11 4 6 - - 0.0
26/01:00pm 17.1 15.5 8.8 58 4.3 W 7 13 4 7 - - 0.0
26/12:30pm 16.8 15.3 9.0 60 4.1 W 7 13 4 7 - - 0.0
26/12:00pm 15.2 13.6 8.2 63 3.6 SW 6 11 3 6 - - 0.0
26/11:30am 14.9 13.4 8.4 65 3.3 WSW 6 11 3 6 - - 0.0
26/11:00am 14.1 12.3 8.1 67 3.0 SW 7 17 4 9 - - 0.0
26/10:30am 14.1 12.0 8.3 68 2.9 WSW 9 15 5 8 - - 0.0
26/10:00am 13.6 12.0 8.2 70 2.7 W 6 9 3 5 - - 0.0
26/09:30am 12.8 11.3 8.3 74 2.3 WSW 6 11 3 6 - - 0.0
26/09:00am 12.8 11.5 9.3 79 1.8 WSW 6 7 3 4 - - 0.0
26/08:30am 11.0 10.1 9.4 90 0.8 SW 4 7 2 4 - - 0.0
26/08:00am 9.2 9.0 9.2 100 0.0 CALM 0 0 0 0 - - 0.0
26/07:30am 6.9 6.2 6.9 100 0.0 CALM 0 0 0 0 - - 0.0
26/07:00am 5.3 4.2 5.3 100 0.0 CALM 0 2 0 1 - - 0.0
26/06:30am 5.0 3.9 4.9 99 0.0 CALM 0 0 0 0 - - 0.0
26/06:00am 5.4 4.3 5.1 98 0.1 CALM 0 2 0 1 - - 0.0
26/05:30am 5.6 3.8 5.3 98 0.1 WNW 4 6 2 3 - - 0.0
26/05:00am 6.0 4.6 5.7 98 0.1 NW 2 4 1 2 - - 0.0
26/04:30am 7.1 5.3 7.1 100 0.0 WNW 6 7 3 4 - - 0.0
26/04:00am 6.7 4.7 6.4 98 0.1 WNW 6 7 3 4 - - 0.0
26/03:30am 6.5 5.6 5.9 96 0.3 CALM 0 0 0 0 - - 0.0
26/03:00am 7.1 5.5 6.5 96 0.3 NW 4 6 2 3 - - 0.0
26/02:30am 7.6 6.1 6.7 94 0.4 WNW 4 6 2 3 - - 0.0
26/02:00am 8.4 6.6 7.3 93 0.5 NW 6 7 3 4 - - 0.0
26/01:30am 9.0 7.4 7.8 92 0.6 NW 6 9 3 5 - - 0.0
26/01:00am 9.2 7.5 7.6 90 0.8 NW 6 9 3 5 - - 0.0
26/12:30am 8.8 6.8 6.9 88 0.9 NW 7 11 4 6 - - 0.0
26/12:00am 9.4 7.5 7.5 88 0.9 WNW 7 9 4 5 - - 0.0
 
Date/Time
EST
Temp
°C
App
Temp
°C
Dew
Point
°C
Rel
Hum
%
Delta-T
°C
Wind Press
QNH
hPa
Press
MSL
hPa
Rain since
9am
mm
Dir  Spd
km/h
Gust
km/h
Spd
kts
Gust
kts
25/11:30pm 10.3 8.6 7.4 82 1.4 NW 6 9 3 5 - - 0.0
25/11:00pm 10.4 9.0 7.1 80 1.6 WNW 4 6 2 3 - - 0.0
25/10:30pm 11.1 10.1 7.4 78 1.8 NNW 2 6 1 3 - - 0.0
25/10:00pm 12.2 10.6 7.9 75 2.1 N 6 9 3 5 - - 0.0
25/09:30pm 12.3 11.2 8.4 77 2.0 N 4 7 2 4 - - 0.0
25/09:00pm 12.0 10.6 8.8 81 1.6 N 6 9 3 5 - - 0.0
25/08:30pm 11.9 10.7 10.3 90 0.8 NNE 7 9 4 5 - - 0.0
25/08:00pm 12.1 11.1 11.0 93 0.6 NNE 7 11 4 6 - - 0.0
25/07:30pm 11.8 11.1 11.3 97 0.3 NE 6 9 3 5 - - 0.0
25/07:00pm 10.1 9.2 9.2 94 0.5 ENE 4 6 2 3 - - 0.0
25/06:30pm 10.7 9.9 9.6 93 0.6 ENE 4 4 2 2 - - 0.0
25/06:00pm 10.9 10.0 9.3 90 0.8 ENE 4 4 2 2 - - 0.0
25/05:30pm 11.3 10.3 8.9 85 1.2 ENE 4 6 2 3 - - 0.0
25/05:00pm 12.3 11.9 8.2 76 2.1 CALM 0 0 0 0 - - 0.0
25/04:30pm 15.2 14.9 8.7 65 3.4 CALM 0 0 0 0 - - 0.0
25/04:00pm 17.5 16.6 7.8 53 5.0 WNW 2 2 1 1 - - 0.0
25/03:30pm 18.4 17.3 6.9 47 5.8 WNW 2 6 1 3 - - 0.0
25/03:00pm 18.5 17.5 8.7 53 5.2 NNW 4 7 2 4 - - 0.0
25/02:30pm 19.2 18.5 10.2 56 4.9 NW 4 9 2 5 - - 0.0
25/02:00pm 17.9 17.4 9.5 58 4.5 SSW 2 7 1 4 - - 0.0
25/01:30pm 17.6 16.6 9.0 57 4.5 SE 4 9 2 5 - - 0.0
25/01:00pm 17.7 16.7 8.8 56 4.7 WSW 4 7 2 4 - - 0.0
25/12:30pm 16.8 15.7 8.5 58 4.3 S 4 6 2 3 - - 0.0
25/12:00pm 16.6 15.8 9.5 63 3.8 SSE 4 13 2 7 - - 0.0
25/11:30am 16.9 16.1 9.6 62 3.9 W 4 9 2 5 - - 0.0
25/11:00am 16.0 14.6 8.7 62 3.8 WSW 6 9 3 5 - - 0.0
25/10:30am 15.2 13.5 7.7 61 3.8 WSW 6 9 3 5 - - 0.0
25/10:00am 14.7 13.0 7.7 63 3.5 W 6 9 3 5 - - 0.0
25/09:30am 13.3 11.6 7.7 69 2.8 W 6 7 3 4 - - 0.0
25/09:00am 12.7 11.5 8.0 73 2.4 NW 4 6 2 3 - - 0.0
25/08:30am 11.5 10.4 8.5 82 1.5 WNW 4 6 2 3 - - 0.0
25/08:00am 8.9 7.9 8.8 99 0.0 NW 4 6 2 3 - - 0.0
25/07:30am 6.6 5.1 6.6 100 0.0 NW 4 6 2 3 - - 0.0
25/07:00am 5.9 4.2 5.8 99 0.0 WNW 4 6 2 3 - - 0.0
25/06:30am 5.1 3.2 4.7 97 0.2 NW 4 6 2 3 - - 0.0
25/06:00am 5.5 3.7 5.2 98 0.1 NW 4 6 2 3 - - 0.0
25/05:30am 5.4 3.5 5.0 97 0.2 NW 4 6 2 3 - - 0.0
25/05:00am 5.8 4.0 5.2 96 0.3 WNW 4 6 2 3 - - 0.0
25/04:30am 5.8 4.0 5.2 96 0.3 WNW 4 7 2 4 - - 0.0
25/04:00am 6.3 4.5 5.6 95 0.3 WNW 4 6 2 3 - - 0.0
25/03:30am 6.7 5.0 6.1 96 0.3 WNW 4 7 2 4 - - 0.0
25/03:00am 6.5 4.8 5.9 96 0.3 NW 4 6 2 3 - - 0.0
25/02:30am 6.4 4.6 5.5 94 0.4 WNW 4 6 2 3 - - 0.0
25/02:00am 6.7 4.9 5.3 91 0.6 WNW 4 4 2 2 - - 0.0
25/01:30am 7.4 6.1 5.9 90 0.7 WNW 2 4 1 2 - - 0.0
25/01:00am 7.7 6.3 5.7 87 0.9 W 2 4 1 2 - - 0.0
25/12:30am 8.3 6.5 5.6 83 1.2 W 4 6 2 3 - - 0.0
25/12:00am 9.2 7.5 5.8 79 1.6 W 4 7 2 4 - - 0.0
 
Date/Time
EST
Temp
°C
App
Temp
°C
Dew
Point
°C
Rel
Hum
%
Delta-T
°C
Wind Press
QNH
hPa
Press
MSL
hPa
Rain since
9am
mm
Dir  Spd
km/h
Gust
km/h
Spd
kts
Gust
kts
24/11:30pm 9.6 7.8 5.4 75 1.9 W 4 7 2 4 - - 0.0
24/11:00pm 11.0 8.8 6.0 71 2.4 W 7 11 4 6 - - 0.0
24/10:30pm 9.8 7.5 5.8 76 1.9 W 7 13 4 7 - - 0.0
24/10:00pm 9.9 8.5 5.5 74 2.0 W 2 7 1 4 - - 0.0
24/09:30pm 10.7 8.9 5.5 70 2.4 W 4 7 2 4 - - 0.0
24/09:00pm 11.2 9.0 5.5 68 2.7 W 6 11 3 6 - - 0.0
24/08:30pm 11.4 8.7 5.5 67 2.8 W 9 13 5 7 - - 0.0
24/08:00pm 11.8 9.5 5.9 67 2.8 W 7 13 4 7 - - 0.0
24/07:30pm 12.3 10.1 6.1 66 3.0 W 7 13 4 7 - - 0.0
24/07:00pm 12.8 10.3 6.4 65 3.1 W 9 15 5 8 - - 0.0
24/06:30pm 12.6 10.5 5.8 63 3.2 WSW 6 9 3 5 - - 0.0
24/06:00pm 13.0 10.6 5.4 60 3.6 W 7 13 4 7 - - 0.0
24/05:30pm 15.1 12.7 5.3 52 4.7 W 7 11 4 6 - - 0.0
24/05:00pm 15.9 12.5 5.8 51 4.9 W 13 20 7 11 - - 0.0
24/04:30pm 17.4 13.3 6.0 47 5.7 W 17 30 9 16 - - 0.0
24/04:00pm 18.5 14.7 6.0 44 6.3 W 15 24 8 13 - - 0.0
24/03:30pm 20.2 17.2 7.6 44 6.6 W 13 24 7 13 - - 0.0
24/03:00pm 20.4 17.2 6.7 41 7.0 W 13 19 7 10 - - 0.0
24/02:30pm 20.9 17.9 7.9 43 6.8 W 13 24 7 13 - - 0.0
24/02:00pm 21.0 16.8 7.6 42 7.0 W 19 33 10 18 - - 0.0
24/01:30pm 21.3 18.5 8.6 44 6.8 W 13 28 7 15 - - 0.0
24/01:00pm 21.8 20.6 12.9 57 5.2 NW 11 15 6 8 - - 0.0
24/12:30pm 19.1 18.6 12.8 67 3.6 W 7 13 4 7 - - 0.0
24/12:00pm 20.0 17.9 12.5 62 4.3 WNW 15 24 8 13 - - 0.0
24/11:30am 20.1 18.2 13.1 64 4.0 WNW 15 24 8 13 - - 0.0
24/11:00am 19.6 18.2 13.5 68 3.5 NW 13 22 7 12 - - 0.0
24/10:30am 18.9 17.1 13.3 70 3.2 NW 15 24 8 13 - - 0.0
24/10:00am 18.2 17.0 12.9 71 3.0 NW 11 24 6 13 - - 0.0
24/09:30am 17.7 17.4 13.2 75 2.6 NW 7 15 4 8 - - 0.0
24/09:00am 17.3 17.2 13.4 78 2.2 NW 6 9 3 5 - - 0.8
24/08:30am 16.2 16.9 13.5 84 1.5 NNW 2 6 1 3 - - 0.8
24/08:00am 13.9 14.2 13.3 96 0.3 NNW 4 6 2 3 - - 0.8
24/07:30am 11.6 12.0 11.1 97 0.3 CALM 0 0 0 0 - - 0.8
24/07:00am 12.1 11.8 11.6 97 0.3 N 4 6 2 3 - - 0.8

Other Formats:

Comma delimited format used in spreadsheet applications
http://www.bom.gov.au/fwo/IDN60801/IDN60801.95774.axf

JavaScript Object Notation format (JSON) in row-major order
http://www.bom.gov.au/fwo/IDN60801/IDN60801.95774.json